sensor_id;sensor_type;location;lat;lon;timestamp;P1;durP1;ratioP1;P2;durP2;ratioP2
32501;SDS011;18952;52.516;13.460;2023-06-01T00:00:04;6.85;;;2.60;;
32501;SDS011;18952;52.516;13.460;2023-06-01T00:02:31;5.50;;;3.28;;
32501;SDS011;18952;52.516;13.460;2023-06-01T00:04:58;5.55;;;2.53;;
32501;SDS011;18952;52.516;13.460;2023-06-01T00:07:25;6.32;;;2.92;;
32501;SDS011;18952;52.516;13.460;2023-06-01T00:09:52;10.00;;;3.15;;
32501;SDS011;18952;52.516;13.460;2023-06-01T00:12:18;11.15;;;2.67;;
32501;SDS011;18952;52.516;13.460;2023-06-01T00:14:45;3.67;;;2.47;;
32501;SDS011;18952;52.516;13.460;2023-06-01T00:17:12;8.25;;;2.67;;
32501;SDS011;18952;52.516;13.460;2023-06-01T00:19:39;4.72;;;2.80;;
32501;SDS011;18952;52.516;13.460;2023-06-01T00:22:06;12.38;;;2.80;;
32501;SDS011;18952;52.516;13.460;2023-06-01T00:24:33;10.73;;;2.85;;
32501;SDS011;18952;52.516;13.460;2023-06-01T00:26:59;6.97;;;2.58;;
32501;SDS011;18952;52.516;13.460;2023-06-01T00:29:26;7.47;;;3.08;;
32501;SDS011;18952;52.516;13.460;2023-06-01T00:31:53;5.68;;;2.53;;
32501;SDS011;18952;52.516;13.460;2023-06-01T00:34:20;9.85;;;3.10;;
32501;SDS011;18952;52.516;13.460;2023-06-01T00:36:47;8.32;;;2.40;;
32501;SDS011;18952;52.516;13.460;2023-06-01T00:39:14;13.55;;;2.95;;
32501;SDS011;18952;52.516;13.460;2023-06-01T00:41:40;4.57;;;2.65;;
32501;SDS011;18952;52.516;13.460;2023-06-01T00:44:07;8.45;;;2.55;;
32501;SDS011;18952;52.516;13.460;2023-06-01T00:46:34;12.02;;;2.65;;
32501;SDS011;18952;52.516;13.460;2023-06-01T00:49:03;5.90;;;2.67;;
32501;SDS011;18952;52.516;13.460;2023-06-01T00:51:29;12.07;;;2.60;;
32501;SDS011;18952;52.516;13.460;2023-06-01T00:53:59;9.40;;;2.55;;
32501;SDS011;18952;52.516;13.460;2023-06-01T00:56:26;7.03;;;2.58;;
32501;SDS011;18952;52.516;13.460;2023-06-01T00:58:53;13.90;;;3.10;;
32501;SDS011;18952;52.516;13.460;2023-06-01T01:01:20;6.18;;;2.20;;
32501;SDS011;18952;52.516;13.460;2023-06-01T01:03:47;8.15;;;2.80;;
32501;SDS011;18952;52.516;13.460;2023-06-01T01:11:52;6.35;;;2.38;;
32501;SDS011;18952;52.516;13.460;2023-06-01T01:17:33;4.95;;;2.60;;
32501;SDS011;18952;52.516;13.460;2023-06-01T01:20:06;7.45;;;2.95;;
32501;SDS011;18952;52.516;13.460;2023-06-01T01:30:56;5.95;;;2.88;;
32501;SDS011;18952;52.516;13.460;2023-06-01T01:33:27;9.82;;;2.60;;
32501;SDS011;18952;52.516;13.460;2023-06-01T01:35:55;6.38;;;3.00;;
32501;SDS011;18952;52.516;13.460;2023-06-01T01:38:23;11.27;;;3.25;;
32501;SDS011;18952;52.516;13.460;2023-06-01T01:40:49;5.70;;;2.88;;
32501;SDS011;18952;52.516;13.460;2023-06-01T01:43:16;5.75;;;2.78;;
32501;SDS011;18952;52.516;13.460;2023-06-01T01:45:43;6.70;;;2.92;;
32501;SDS011;18952;52.516;13.460;2023-06-01T01:48:19;6.10;;;3.15;;
32501;SDS011;18952;52.516;13.460;2023-06-01T01:51:07;7.20;;;2.67;;
32501;SDS011;18952;52.516;13.460;2023-06-01T01:53:39;5.88;;;2.63;;
32501;SDS011;18952;52.516;13.460;2023-06-01T01:56:08;8.00;;;3.05;;
32501;SDS011;18952;52.516;13.460;2023-06-01T01:58:35;9.02;;;2.83;;
32501;SDS011;18952;52.516;13.460;2023-06-01T02:01:03;5.30;;;2.92;;
32501;SDS011;18952;52.516;13.460;2023-06-01T02:03:31;6.05;;;2.85;;
32501;SDS011;18952;52.516;13.460;2023-06-01T02:05:58;5.40;;;2.97;;
32501;SDS011;18952;52.516;13.460;2023-06-01T02:08:25;11.15;;;2.78;;
32501;SDS011;18952;52.516;13.460;2023-06-01T02:10:52;11.27;;;3.22;;
32501;SDS011;18952;52.516;13.460;2023-06-01T02:13:18;5.72;;;3.00;;
32501;SDS011;18952;52.516;13.460;2023-06-01T02:15:45;7.38;;;3.40;;
32501;SDS011;18952;52.516;13.460;2023-06-01T02:18:12;8.38;;;3.20;;
32501;SDS011;18952;52.516;13.460;2023-06-01T02:20:39;7.57;;;3.03;;
32501;SDS011;18952;52.516;13.460;2023-06-01T02:23:06;12.27;;;3.53;;
32501;SDS011;18952;52.516;13.460;2023-06-01T02:25:32;12.90;;;3.67;;
32501;SDS011;18952;52.516;13.460;2023-06-01T02:27:59;10.73;;;3.45;;
32501;SDS011;18952;52.516;13.460;2023-06-01T02:30:26;11.68;;;4.18;;
32501;SDS011;18952;52.516;13.460;2023-06-01T02:32:53;7.70;;;3.13;;
32501;SDS011;18952;52.516;13.460;2023-06-01T02:35:21;11.20;;;3.65;;
32501;SDS011;18952;52.516;13.460;2023-06-01T02:37:48;7.35;;;3.22;;
32501;SDS011;18952;52.516;13.460;2023-06-01T02:40:14;4.65;;;3.10;;
32501;SDS011;18952;52.516;13.460;2023-06-01T02:42:41;7.50;;;3.42;;
32501;SDS011;18952;52.516;13.460;2023-06-01T02:45:08;10.38;;;3.60;;
32501;SDS011;18952;52.516;13.460;2023-06-01T02:47:35;8.68;;;3.92;;
32501;SDS011;18952;52.516;13.460;2023-06-01T02:50:02;20.95;;;4.13;;
32501;SDS011;18952;52.516;13.460;2023-06-01T02:52:29;11.70;;;3.90;;
32501;SDS011;18952;52.516;13.460;2023-06-01T02:54:55;9.95;;;4.13;;
32501;SDS011;18952;52.516;13.460;2023-06-01T02:57:22;9.38;;;3.72;;
32501;SDS011;18952;52.516;13.460;2023-06-01T02:59:49;13.90;;;4.53;;
32501;SDS011;18952;52.516;13.460;2023-06-01T03:02:16;7.53;;;4.07;;
32501;SDS011;18952;52.516;13.460;2023-06-01T03:04:43;14.45;;;4.22;;
32501;SDS011;18952;52.516;13.460;2023-06-01T03:07:09;13.68;;;4.65;;
32501;SDS011;18952;52.516;13.460;2023-06-01T03:09:36;11.55;;;4.35;;
32501;SDS011;18952;52.516;13.460;2023-06-01T03:12:03;10.35;;;4.57;;
32501;SDS011;18952;52.516;13.460;2023-06-01T03:14:30;11.23;;;4.55;;
32501;SDS011;18952;52.516;13.460;2023-06-01T03:16:57;10.45;;;4.78;;
32501;SDS011;18952;52.516;13.460;2023-06-01T03:19:23;13.70;;;4.63;;
32501;SDS011;18952;52.516;13.460;2023-06-01T03:21:50;16.52;;;5.05;;
32501;SDS011;18952;52.516;13.460;2023-06-01T03:24:17;10.15;;;5.20;;
32501;SDS011;18952;52.516;13.460;2023-06-01T03:26:44;11.35;;;5.47;;
32501;SDS011;18952;52.516;13.460;2023-06-01T03:29:11;8.48;;;4.60;;
32501;SDS011;18952;52.516;13.460;2023-06-01T03:31:37;12.88;;;5.00;;
32501;SDS011;18952;52.516;13.460;2023-06-01T03:34:05;13.55;;;5.40;;
32501;SDS011;18952;52.516;13.460;2023-06-01T03:36:31;9.52;;;4.80;;
32501;SDS011;18952;52.516;13.460;2023-06-01T03:38:58;12.45;;;5.10;;
32501;SDS011;18952;52.516;13.460;2023-06-01T03:41:25;14.23;;;5.72;;
32501;SDS011;18952;52.516;13.460;2023-06-01T03:43:52;9.77;;;5.70;;
32501;SDS011;18952;52.516;13.460;2023-06-01T03:46:19;13.18;;;6.20;;
32501;SDS011;18952;52.516;13.460;2023-06-01T03:48:48;11.52;;;5.85;;
32501;SDS011;18952;52.516;13.460;2023-06-01T03:51:15;15.93;;;6.60;;
32501;SDS011;18952;52.516;13.460;2023-06-01T03:53:42;20.20;;;6.32;;
32501;SDS011;18952;52.516;13.460;2023-06-01T03:56:08;15.60;;;6.85;;
32501;SDS011;18952;52.516;13.460;2023-06-01T03:58:35;15.20;;;7.05;;
32501;SDS011;18952;52.516;13.460;2023-06-01T04:01:02;15.35;;;7.45;;
32501;SDS011;18952;52.516;13.460;2023-06-01T04:03:29;21.52;;;8.23;;
32501;SDS011;18952;52.516;13.460;2023-06-01T04:05:56;18.70;;;8.75;;
32501;SDS011;18952;52.516;13.460;2023-06-01T04:08:23;17.08;;;6.95;;
32501;SDS011;18952;52.516;13.460;2023-06-01T04:10:50;21.80;;;8.32;;
32501;SDS011;18952;52.516;13.460;2023-06-01T04:13:17;18.70;;;7.45;;
32501;SDS011;18952;52.516;13.460;2023-06-01T04:15:44;13.98;;;7.68;;
32501;SDS011;18952;52.516;13.460;2023-06-01T04:18:12;18.02;;;8.50;;
32501;SDS011;18952;52.516;13.460;2023-06-01T04:20:39;19.92;;;9.07;;
32501;SDS011;18952;52.516;13.460;2023-06-01T04:23:06;17.88;;;7.70;;
32501;SDS011;18952;52.516;13.460;2023-06-01T04:25:33;30.45;;;8.73;;
32501;SDS011;18952;52.516;13.460;2023-06-01T04:28:00;16.73;;;8.50;;
32501;SDS011;18952;52.516;13.460;2023-06-01T04:30:26;18.23;;;8.65;;
32501;SDS011;18952;52.516;13.460;2023-06-01T04:32:55;19.38;;;8.60;;
32501;SDS011;18952;52.516;13.460;2023-06-01T04:35:22;19.02;;;9.15;;
32501;SDS011;18952;52.516;13.460;2023-06-01T04:37:49;20.60;;;9.55;;
32501;SDS011;18952;52.516;13.460;2023-06-01T04:40:16;18.35;;;9.40;;
32501;SDS011;18952;52.516;13.460;2023-06-01T04:42:43;19.23;;;9.70;;
32501;SDS011;18952;52.516;13.460;2023-06-01T04:45:10;20.15;;;10.85;;
32501;SDS011;18952;52.516;13.460;2023-06-01T04:47:37;37.70;;;12.15;;
32501;SDS011;18952;52.516;13.460;2023-06-01T04:50:07;26.80;;;11.70;;
32501;SDS011;18952;52.516;13.460;2023-06-01T04:52:35;31.33;;;11.80;;
32501;SDS011;18952;52.516;13.460;2023-06-01T04:55:03;21.40;;;11.57;;
32501;SDS011;18952;52.516;13.460;2023-06-01T04:57:31;22.15;;;11.63;;
32501;SDS011;18952;52.516;13.460;2023-06-01T04:59:58;20.02;;;11.95;;
32501;SDS011;18952;52.516;13.460;2023-06-01T05:02:25;25.38;;;11.88;;
32501;SDS011;18952;52.516;13.460;2023-06-01T05:04:52;25.35;;;13.05;;
32501;SDS011;18952;52.516;13.460;2023-06-01T05:07:18;34.33;;;13.43;;
32501;SDS011;18952;52.516;13.460;2023-06-01T05:09:45;27.70;;;13.02;;
32501;SDS011;18952;52.516;13.460;2023-06-01T05:12:12;23.08;;;12.82;;
32501;SDS011;18952;52.516;13.460;2023-06-01T05:14:39;24.25;;;13.30;;
32501;SDS011;18952;52.516;13.460;2023-06-01T05:17:05;24.98;;;12.93;;
32501;SDS011;18952;52.516;13.460;2023-06-01T05:19:32;23.40;;;11.85;;
32501;SDS011;18952;52.516;13.460;2023-06-01T05:21:59;35.88;;;13.15;;
32501;SDS011;18952;52.516;13.460;2023-06-01T05:24:26;27.55;;;12.43;;
32501;SDS011;18952;52.516;13.460;2023-06-01T05:26:53;21.05;;;12.68;;
32501;SDS011;18952;52.516;13.460;2023-06-01T05:29:19;24.35;;;13.38;;
32501;SDS011;18952;52.516;13.460;2023-06-01T05:31:46;21.73;;;15.13;;
32501;SDS011;18952;52.516;13.460;2023-06-01T05:34:14;22.17;;;15.38;;
32501;SDS011;18952;52.516;13.460;2023-06-01T05:36:41;27.25;;;16.60;;
32501;SDS011;18952;52.516;13.460;2023-06-01T05:39:07;20.15;;;14.40;;
32501;SDS011;18952;52.516;13.460;2023-06-01T05:41:34;17.15;;;12.63;;
32501;SDS011;18952;52.516;13.460;2023-06-01T05:44:01;22.52;;;12.13;;
32501;SDS011;18952;52.516;13.460;2023-06-01T05:46:28;21.30;;;12.60;;
32501;SDS011;18952;52.516;13.460;2023-06-01T05:48:55;19.30;;;11.65;;
32501;SDS011;18952;52.516;13.460;2023-06-01T05:51:21;20.27;;;10.60;;
32501;SDS011;18952;52.516;13.460;2023-06-01T05:53:48;20.63;;;10.05;;
32501;SDS011;18952;52.516;13.460;2023-06-01T05:56:15;19.35;;;10.00;;
32501;SDS011;18952;52.516;13.460;2023-06-01T05:58:42;20.58;;;10.27;;
32501;SDS011;18952;52.516;13.460;2023-06-01T06:01:10;22.90;;;10.45;;
32501;SDS011;18952;52.516;13.460;2023-06-01T06:03:36;22.30;;;10.05;;
32501;SDS011;18952;52.516;13.460;2023-06-01T06:06:03;17.40;;;8.73;;
32501;SDS011;18952;52.516;13.460;2023-06-01T06:08:30;19.35;;;9.57;;
32501;SDS011;18952;52.516;13.460;2023-06-01T06:10:57;16.38;;;8.82;;
32501;SDS011;18952;52.516;13.460;2023-06-01T06:13:25;20.70;;;9.10;;
32501;SDS011;18952;52.516;13.460;2023-06-01T06:15:52;18.98;;;9.15;;
32501;SDS011;18952;52.516;13.460;2023-06-01T06:18:19;22.00;;;8.85;;
32501;SDS011;18952;52.516;13.460;2023-06-01T06:20:46;13.52;;;9.10;;
32501;SDS011;18952;52.516;13.460;2023-06-01T06:23:13;19.60;;;7.90;;
32501;SDS011;18952;52.516;13.460;2023-06-01T06:25:41;12.43;;;7.75;;
32501;SDS011;18952;52.516;13.460;2023-06-01T06:28:08;17.15;;;8.55;;
32501;SDS011;18952;52.516;13.460;2023-06-01T06:30:36;15.23;;;9.05;;
32501;SDS011;18952;52.516;13.460;2023-06-01T06:33:03;20.05;;;7.68;;
32501;SDS011;18952;52.516;13.460;2023-06-01T06:35:31;19.60;;;8.35;;
32501;SDS011;18952;52.516;13.460;2023-06-01T06:37:59;15.43;;;7.28;;
32501;SDS011;18952;52.516;13.460;2023-06-01T06:40:26;16.90;;;7.07;;
32501;SDS011;18952;52.516;13.460;2023-06-01T06:42:53;19.70;;;7.95;;
32501;SDS011;18952;52.516;13.460;2023-06-01T06:45:20;16.73;;;7.70;;
32501;SDS011;18952;52.516;13.460;2023-06-01T06:47:47;16.08;;;7.88;;
32501;SDS011;18952;52.516;13.460;2023-06-01T06:50:14;21.02;;;8.40;;
32501;SDS011;18952;52.516;13.460;2023-06-01T06:52:40;20.55;;;7.40;;
32501;SDS011;18952;52.516;13.460;2023-06-01T06:55:07;18.80;;;8.35;;
32501;SDS011;18952;52.516;13.460;2023-06-01T06:57:34;21.45;;;9.13;;
32501;SDS011;18952;52.516;13.460;2023-06-01T07:00:01;17.40;;;7.78;;
32501;SDS011;18952;52.516;13.460;2023-06-01T07:02:28;17.58;;;8.32;;
32501;SDS011;18952;52.516;13.460;2023-06-01T07:04:55;17.75;;;8.23;;
32501;SDS011;18952;52.516;13.460;2023-06-01T07:07:22;13.23;;;7.22;;
32501;SDS011;18952;52.516;13.460;2023-06-01T07:09:49;20.65;;;8.10;;
32501;SDS011;18952;52.516;13.460;2023-06-01T07:12:16;22.88;;;7.97;;
32501;SDS011;18952;52.516;13.460;2023-06-01T07:14:43;16.08;;;8.10;;
32501;SDS011;18952;52.516;13.460;2023-06-01T07:17:09;18.33;;;7.97;;
32501;SDS011;18952;52.516;13.460;2023-06-01T07:19:36;16.48;;;7.65;;
32501;SDS011;18952;52.516;13.460;2023-06-01T07:22:03;16.45;;;7.28;;
32501;SDS011;18952;52.516;13.460;2023-06-01T07:24:30;17.17;;;7.60;;
32501;SDS011;18952;52.516;13.460;2023-06-01T07:26:57;14.38;;;7.07;;
32501;SDS011;18952;52.516;13.460;2023-06-01T07:29:24;16.02;;;8.10;;
32501;SDS011;18952;52.516;13.460;2023-06-01T07:31:51;17.73;;;8.02;;
32501;SDS011;18952;52.516;13.460;2023-06-01T07:34:18;18.20;;;7.95;;
32501;SDS011;18952;52.516;13.460;2023-06-01T07:36:46;13.68;;;7.78;;
32501;SDS011;18952;52.516;13.460;2023-06-01T07:39:13;13.48;;;7.70;;
32501;SDS011;18952;52.516;13.460;2023-06-01T07:41:40;18.27;;;7.43;;
32501;SDS011;18952;52.516;13.460;2023-06-01T07:44:07;16.40;;;7.88;;
32501;SDS011;18952;52.516;13.460;2023-06-01T07:46:34;16.40;;;7.88;;
32501;SDS011;18952;52.516;13.460;2023-06-01T07:49:01;15.43;;;7.85;;
32501;SDS011;18952;52.516;13.460;2023-06-01T07:51:28;16.17;;;8.35;;
32501;SDS011;18952;52.516;13.460;2023-06-01T07:53:55;20.88;;;7.50;;
32501;SDS011;18952;52.516;13.460;2023-06-01T07:56:22;12.88;;;7.78;;
32501;SDS011;18952;52.516;13.460;2023-06-01T07:58:49;17.30;;;8.40;;
32501;SDS011;18952;52.516;13.460;2023-06-01T08:01:18;14.93;;;8.13;;
32501;SDS011;18952;52.516;13.460;2023-06-01T08:03:45;19.27;;;8.10;;
32501;SDS011;18952;52.516;13.460;2023-06-01T08:06:12;18.65;;;7.20;;
32501;SDS011;18952;52.516;13.460;2023-06-01T08:08:40;15.52;;;8.60;;
32501;SDS011;18952;52.516;13.460;2023-06-01T08:11:07;21.98;;;7.10;;
32501;SDS011;18952;52.516;13.460;2023-06-01T08:13:34;13.52;;;7.43;;
32501;SDS011;18952;52.516;13.460;2023-06-01T08:16:02;24.52;;;8.57;;
32501;SDS011;18952;52.516;13.460;2023-06-01T08:18:29;17.20;;;8.18;;
32501;SDS011;18952;52.516;13.460;2023-06-01T08:20:57;16.77;;;7.97;;
32501;SDS011;18952;52.516;13.460;2023-06-01T08:23:23;20.15;;;8.05;;
32501;SDS011;18952;52.516;13.460;2023-06-01T08:25:50;14.50;;;7.28;;
32501;SDS011;18952;52.516;13.460;2023-06-01T08:28:17;15.02;;;7.95;;
32501;SDS011;18952;52.516;13.460;2023-06-01T08:30:44;23.25;;;7.93;;
32501;SDS011;18952;52.516;13.460;2023-06-01T08:33:11;19.08;;;7.13;;
32501;SDS011;18952;52.516;13.460;2023-06-01T08:35:38;15.75;;;6.95;;
32501;SDS011;18952;52.516;13.460;2023-06-01T08:38:05;14.07;;;6.93;;
32501;SDS011;18952;52.516;13.460;2023-06-01T08:40:31;19.23;;;7.28;;
32501;SDS011;18952;52.516;13.460;2023-06-01T08:42:59;19.75;;;7.10;;
32501;SDS011;18952;52.516;13.460;2023-06-01T08:45:34;14.85;;;6.78;;
32501;SDS011;18952;52.516;13.460;2023-06-01T08:48:02;14.07;;;6.30;;
32501;SDS011;18952;52.516;13.460;2023-06-01T08:50:31;17.95;;;7.05;;
32501;SDS011;18952;52.516;13.460;2023-06-01T08:52:58;17.90;;;6.82;;
32501;SDS011;18952;52.516;13.460;2023-06-01T08:55:25;17.67;;;7.30;;
32501;SDS011;18952;52.516;13.460;2023-06-01T08:57:53;14.98;;;6.85;;
32501;SDS011;18952;52.516;13.460;2023-06-01T09:00:20;21.38;;;6.93;;
32501;SDS011;18952;52.516;13.460;2023-06-01T09:02:48;19.02;;;6.75;;
32501;SDS011;18952;52.516;13.460;2023-06-01T09:05:15;19.88;;;7.10;;
32501;SDS011;18952;52.516;13.460;2023-06-01T09:07:42;12.30;;;6.00;;
32501;SDS011;18952;52.516;13.460;2023-06-01T09:10:09;11.70;;;5.95;;
32501;SDS011;18952;52.516;13.460;2023-06-01T09:12:37;23.55;;;6.80;;
32501;SDS011;18952;52.516;13.460;2023-06-01T09:17:34;18.27;;;6.90;;
32501;SDS011;18952;52.516;13.460;2023-06-01T09:20:01;16.17;;;6.35;;
32501;SDS011;18952;52.516;13.460;2023-06-01T09:22:42;17.92;;;5.82;;
32501;SDS011;18952;52.516;13.460;2023-06-01T09:25:10;13.05;;;5.88;;
32501;SDS011;18952;52.516;13.460;2023-06-01T09:27:41;14.15;;;5.57;;
32501;SDS011;18952;52.516;13.460;2023-06-01T09:30:09;12.75;;;6.65;;
32501;SDS011;18952;52.516;13.460;2023-06-01T09:32:37;16.83;;;6.97;;
32501;SDS011;18952;52.516;13.460;2023-06-01T09:35:04;23.35;;;6.57;;
32501;SDS011;18952;52.516;13.460;2023-06-01T09:37:31;16.40;;;6.70;;
32501;SDS011;18952;52.516;13.460;2023-06-01T09:39:57;15.73;;;5.80;;
32501;SDS011;18952;52.516;13.460;2023-06-01T09:42:31;15.90;;;6.90;;
32501;SDS011;18952;52.516;13.460;2023-06-01T09:47:47;12.25;;;6.22;;
32501;SDS011;18952;52.516;13.460;2023-06-01T09:50:33;14.75;;;6.80;;
32501;SDS011;18952;52.516;13.460;2023-06-01T09:53:02;14.57;;;6.60;;
32501;SDS011;18952;52.516;13.460;2023-06-01T09:55:31;16.95;;;6.47;;
32501;SDS011;18952;52.516;13.460;2023-06-01T09:58:16;18.05;;;6.28;;
32501;SDS011;18952;52.516;13.460;2023-06-01T10:03:11;14.30;;;5.53;;
32501;SDS011;18952;52.516;13.460;2023-06-01T10:05:39;15.27;;;6.47;;
32501;SDS011;18952;52.516;13.460;2023-06-01T10:08:06;16.85;;;7.10;;
32501;SDS011;18952;52.516;13.460;2023-06-01T10:10:34;15.00;;;7.28;;
32501;SDS011;18952;52.516;13.460;2023-06-01T10:13:03;15.27;;;6.45;;
32501;SDS011;18952;52.516;13.460;2023-06-01T10:15:30;18.25;;;6.72;;
32501;SDS011;18952;52.516;13.460;2023-06-01T10:17:57;13.88;;;6.38;;
32501;SDS011;18952;52.516;13.460;2023-06-01T10:20:25;13.60;;;7.28;;
32501;SDS011;18952;52.516;13.460;2023-06-01T10:22:53;21.33;;;7.95;;
32501;SDS011;18952;52.516;13.460;2023-06-01T10:25:22;21.98;;;8.27;;
32501;SDS011;18952;52.516;13.460;2023-06-01T10:27:54;13.65;;;6.47;;
32501;SDS011;18952;52.516;13.460;2023-06-01T10:30:24;23.05;;;8.90;;
32501;SDS011;18952;52.516;13.460;2023-06-01T10:32:51;14.43;;;7.72;;
32501;SDS011;18952;52.516;13.460;2023-06-01T10:40:33;14.88;;;8.02;;
32501;SDS011;18952;52.516;13.460;2023-06-01T10:43:00;23.05;;;8.98;;
32501;SDS011;18952;52.516;13.460;2023-06-01T10:48:02;14.55;;;8.45;;
32501;SDS011;18952;52.516;13.460;2023-06-01T10:50:30;17.85;;;8.65;;
32501;SDS011;18952;52.516;13.460;2023-06-01T10:52:57;17.02;;;9.65;;
32501;SDS011;18952;52.516;13.460;2023-06-01T10:56:33;21.90;;;9.65;;
32501;SDS011;18952;52.516;13.460;2023-06-01T11:01:44;20.20;;;9.98;;
32501;SDS011;18952;52.516;13.460;2023-06-01T11:04:15;17.90;;;10.10;;
32501;SDS011;18952;52.516;13.460;2023-06-01T11:06:42;18.63;;;9.63;;
32501;SDS011;18952;52.516;13.460;2023-06-01T11:09:10;20.88;;;10.55;;
32501;SDS011;18952;52.516;13.460;2023-06-01T11:14:20;16.70;;;9.95;;
32501;SDS011;18952;52.516;13.460;2023-06-01T11:16:48;16.38;;;10.60;;
32501;SDS011;18952;52.516;13.460;2023-06-01T11:19:19;20.58;;;9.68;;
32501;SDS011;18952;52.516;13.460;2023-06-01T11:21:54;26.17;;;9.70;;
32501;SDS011;18952;52.516;13.460;2023-06-01T11:24:22;15.32;;;10.13;;
32501;SDS011;18952;52.516;13.460;2023-06-01T11:26:50;13.93;;;9.32;;
32501;SDS011;18952;52.516;13.460;2023-06-01T11:29:22;17.88;;;9.10;;
32501;SDS011;18952;52.516;13.460;2023-06-01T11:31:52;19.15;;;9.40;;
32501;SDS011;18952;52.516;13.460;2023-06-01T11:34:27;14.07;;;9.27;;
32501;SDS011;18952;52.516;13.460;2023-06-01T11:37:00;19.77;;;9.95;;
32501;SDS011;18952;52.516;13.460;2023-06-01T11:39:27;12.60;;;8.35;;
32501;SDS011;18952;52.516;13.460;2023-06-01T11:44:58;28.42;;;9.02;;
32501;SDS011;18952;52.516;13.460;2023-06-01T11:47:28;16.48;;;9.00;;
32501;SDS011;18952;52.516;13.460;2023-06-01T11:49:56;41.05;;;9.02;;
32501;SDS011;18952;52.516;13.460;2023-06-01T11:52:23;14.73;;;8.15;;
32501;SDS011;18952;52.516;13.460;2023-06-01T11:54:50;17.85;;;8.00;;
32501;SDS011;18952;52.516;13.460;2023-06-01T11:57:17;12.77;;;7.72;;
32501;SDS011;18952;52.516;13.460;2023-06-01T11:59:45;12.77;;;8.13;;
32501;SDS011;18952;52.516;13.460;2023-06-01T12:02:23;12.52;;;7.93;;
32501;SDS011;18952;52.516;13.460;2023-06-01T12:04:57;10.93;;;7.95;;
32501;SDS011;18952;52.516;13.460;2023-06-01T12:07:26;20.33;;;8.48;;
32501;SDS011;18952;52.516;13.460;2023-06-01T12:09:53;12.07;;;7.70;;
32501;SDS011;18952;52.516;13.460;2023-06-01T12:12:23;17.65;;;6.88;;
32501;SDS011;18952;52.516;13.460;2023-06-01T12:14:51;14.40;;;7.03;;
32501;SDS011;18952;52.516;13.460;2023-06-01T12:17:19;10.25;;;6.35;;
32501;SDS011;18952;52.516;13.460;2023-06-01T12:19:47;13.93;;;7.00;;
32501;SDS011;18952;52.516;13.460;2023-06-01T12:22:14;11.90;;;7.03;;
32501;SDS011;18952;52.516;13.460;2023-06-01T12:24:42;16.75;;;6.40;;
32501;SDS011;18952;52.516;13.460;2023-06-01T12:27:16;18.83;;;6.57;;
32501;SDS011;18952;52.516;13.460;2023-06-01T12:29:44;40.55;;;7.28;;
32501;SDS011;18952;52.516;13.460;2023-06-01T12:32:13;12.57;;;5.53;;
32501;SDS011;18952;52.516;13.460;2023-06-01T12:34:41;16.83;;;6.20;;
32501;SDS011;18952;52.516;13.460;2023-06-01T12:37:12;13.85;;;5.85;;
32501;SDS011;18952;52.516;13.460;2023-06-01T12:39:40;9.95;;;5.35;;
32501;SDS011;18952;52.516;13.460;2023-06-01T12:42:08;11.43;;;6.25;;
32501;SDS011;18952;52.516;13.460;2023-06-01T12:44:36;9.68;;;5.45;;
32501;SDS011;18952;52.516;13.460;2023-06-01T12:47:06;15.43;;;6.43;;
32501;SDS011;18952;52.516;13.460;2023-06-01T12:49:33;15.32;;;6.20;;
32501;SDS011;18952;52.516;13.460;2023-06-01T12:52:00;18.35;;;6.22;;
32501;SDS011;18952;52.516;13.460;2023-06-01T12:54:26;13.82;;;6.28;;
32501;SDS011;18952;52.516;13.460;2023-06-01T12:56:53;11.07;;;6.05;;
32501;SDS011;18952;52.516;13.460;2023-06-01T12:59:20;18.85;;;6.10;;
32501;SDS011;18952;52.516;13.460;2023-06-01T13:01:47;13.43;;;6.38;;
32501;SDS011;18952;52.516;13.460;2023-06-01T13:04:14;14.02;;;5.80;;
32501;SDS011;18952;52.516;13.460;2023-06-01T13:06:41;14.55;;;5.80;;
32501;SDS011;18952;52.516;13.460;2023-06-01T13:09:08;11.88;;;5.18;;
32501;SDS011;18952;52.516;13.460;2023-06-01T13:14:36;11.18;;;6.20;;
32501;SDS011;18952;52.516;13.460;2023-06-01T13:17:03;17.60;;;5.28;;
32501;SDS011;18952;52.516;13.460;2023-06-01T13:19:30;12.10;;;5.03;;
32501;SDS011;18952;52.516;13.460;2023-06-01T13:21:57;11.40;;;5.22;;
32501;SDS011;18952;52.516;13.460;2023-06-01T13:24:24;13.50;;;6.07;;
32501;SDS011;18952;52.516;13.460;2023-06-01T13:26:51;17.20;;;6.70;;
32501;SDS011;18952;52.516;13.460;2023-06-01T13:29:18;13.45;;;5.53;;
32501;SDS011;18952;52.516;13.460;2023-06-01T13:31:46;11.05;;;5.30;;
32501;SDS011;18952;52.516;13.460;2023-06-01T13:34:13;8.60;;;5.38;;
32501;SDS011;18952;52.516;13.460;2023-06-01T13:36:40;17.13;;;5.40;;
32501;SDS011;18952;52.516;13.460;2023-06-01T13:39:08;9.82;;;5.45;;
32501;SDS011;18952;52.516;13.460;2023-06-01T13:41:35;15.88;;;4.75;;
32501;SDS011;18952;52.516;13.460;2023-06-01T13:44:02;10.00;;;5.00;;
32501;SDS011;18952;52.516;13.460;2023-06-01T13:46:29;7.57;;;4.85;;
32501;SDS011;18952;52.516;13.460;2023-06-01T13:48:56;16.38;;;5.55;;
32501;SDS011;18952;52.516;13.460;2023-06-01T13:51:25;12.05;;;5.65;;
32501;SDS011;18952;52.516;13.460;2023-06-01T13:53:52;14.60;;;5.25;;
32501;SDS011;18952;52.516;13.460;2023-06-01T13:56:18;10.82;;;5.05;;
32501;SDS011;18952;52.516;13.460;2023-06-01T13:58:45;12.30;;;4.90;;
32501;SDS011;18952;52.516;13.460;2023-06-01T14:01:12;23.30;;;5.32;;
32501;SDS011;18952;52.516;13.460;2023-06-01T14:03:39;12.48;;;5.25;;
32501;SDS011;18952;52.516;13.460;2023-06-01T14:06:06;8.57;;;5.55;;
32501;SDS011;18952;52.516;13.460;2023-06-01T14:08:33;12.95;;;5.82;;
32501;SDS011;18952;52.516;13.460;2023-06-01T14:11:00;10.07;;;5.35;;
32501;SDS011;18952;52.516;13.460;2023-06-01T14:13:27;13.70;;;5.38;;
32501;SDS011;18952;52.516;13.460;2023-06-01T14:15:54;16.50;;;5.13;;
32501;SDS011;18952;52.516;13.460;2023-06-01T14:18:21;12.27;;;5.40;;
32501;SDS011;18952;52.516;13.460;2023-06-01T14:20:50;11.35;;;4.95;;
32501;SDS011;18952;52.516;13.460;2023-06-01T14:23:17;11.23;;;4.93;;
32501;SDS011;18952;52.516;13.460;2023-06-01T14:25:44;15.80;;;5.25;;
32501;SDS011;18952;52.516;13.460;2023-06-01T14:28:13;17.73;;;6.15;;
32501;SDS011;18952;52.516;13.460;2023-06-01T14:30:40;16.52;;;5.70;;
32501;SDS011;18952;52.516;13.460;2023-06-01T14:33:07;15.48;;;5.30;;
32501;SDS011;18952;52.516;13.460;2023-06-01T14:35:34;14.77;;;5.72;;
32501;SDS011;18952;52.516;13.460;2023-06-01T14:38:01;10.32;;;4.72;;
32501;SDS011;18952;52.516;13.460;2023-06-01T14:40:27;11.90;;;4.65;;
32501;SDS011;18952;52.516;13.460;2023-06-01T14:42:54;11.73;;;5.15;;
32501;SDS011;18952;52.516;13.460;2023-06-01T14:45:21;12.02;;;5.10;;
32501;SDS011;18952;52.516;13.460;2023-06-01T14:47:48;16.95;;;5.10;;
32501;SDS011;18952;52.516;13.460;2023-06-01T14:50:15;14.10;;;4.75;;
32501;SDS011;18952;52.516;13.460;2023-06-01T14:52:42;11.02;;;4.85;;
32501;SDS011;18952;52.516;13.460;2023-06-01T14:55:08;10.55;;;4.93;;
32501;SDS011;18952;52.516;13.460;2023-06-01T14:57:38;16.70;;;5.32;;
32501;SDS011;18952;52.516;13.460;2023-06-01T15:00:05;12.98;;;4.82;;
32501;SDS011;18952;52.516;13.460;2023-06-01T15:02:33;13.60;;;5.18;;
32501;SDS011;18952;52.516;13.460;2023-06-01T15:05:00;11.55;;;5.43;;
32501;SDS011;18952;52.516;13.460;2023-06-01T15:07:27;11.48;;;5.43;;
32501;SDS011;18952;52.516;13.460;2023-06-01T15:09:54;11.77;;;4.80;;